Time;durP1;ratioP1;P1;durP2;ratioP2;P2;SDS_P1;SDS_P2;PMS_P1;PMS_P2;Temp;Humidity;BMP_temperature;BMP_pressure;BME280_temperature;BME280_humidity;BME280_pressure;Samples;Min_cycle;Max_cycle;Signal;HPM_P1;HPM_P2
2022/12/01 00:00:38;;;;;;;2.67;2.45;;;5.30;99.90;;;;;;5045633;28;20123;-76
2022/12/01 00:03:03;;;;;;;5.85;3.25;;;5.40;99.90;;;;;;5045650;28;20037;-76
2022/12/01 00:05:29;;;;;;;3.78;1.75;;;5.30;99.90;;;;;;5045467;28;20047;-75
2022/12/01 00:07:56;;;;;;;5.05;4.05;;;5.30;99.90;;;;;;5045425;28;20164;-76
2022/12/01 00:10:24;;;;;;;3.15;2.85;;;5.30;99.90;;;;;;5045135;28;20494;-76
2022/12/01 00:12:59;;;;;;;2.83;2.50;;;5.30;99.90;;;;;;5045471;28;20498;-76
2022/12/01 00:15:27;;;;;;;5.60;4.18;;;5.30;99.90;;;;;;5045886;28;20406;-76
2022/12/01 00:17:53;;;;;;;3.60;3.20;;;5.30;99.90;;;;;;5044853;28;20041;-78
2022/12/01 00:20:19;;;;;;;11.60;6.05;;;5.30;99.90;;;;;;5045410;28;20075;-76
2022/12/01 00:22:46;;;;;;;5.63;3.40;;;5.30;99.90;;;;;;5044495;28;20033;-76
2022/12/01 00:25:13;;;;;;;4.20;3.80;;;5.30;99.90;;;;;;5045499;28;20041;-76
2022/12/01 00:27:39;;;;;;;5.15;3.60;;;5.30;99.90;;;;;;5045267;28;20127;-77
2022/12/01 00:30:07;;;;;;;21.55;5.10;;;5.30;99.90;;;;;;5027133;28;20124;-77
2022/12/01 00:32:33;;;;;;;1.40;1.23;;;5.30;99.90;;;;;;5044163;28;20052;-76
2022/12/01 00:34:59;;;;;;;6.20;3.90;;;5.30;99.90;;;;;;5044961;28;20041;-76
2022/12/01 00:37:25;;;;;;;5.05;4.00;;;5.30;99.90;;;;;;5044990;28;20409;-76
2022/12/01 00:39:50;;;;;;;7.10;4.32;;;5.30;99.90;;;;;;5044747;28;20128;-76
2022/12/01 00:42:19;;;;;;;6.28;5.25;;;5.30;99.90;;;;;;5044112;28;20044;-76
2022/12/01 00:44:46;;;;;;;5.95;4.03;;;5.30;99.90;;;;;;5044471;28;20049;-75
2022/12/01 00:47:12;;;;;;;4.13;3.72;;;5.30;99.90;;;;;;5044154;28;20045;-76
2022/12/01 00:49:38;;;;;;;3.58;3.10;;;5.30;99.90;;;;;;5044495;28;20045;-76
2022/12/01 00:52:04;;;;;;;3.95;3.30;;;5.30;99.90;;;;;;5044187;28;20045;-76
2022/12/01 00:54:32;;;;;;;15.02;3.05;;;5.30;99.90;;;;;;5044235;28;20125;-76
2022/12/01 00:56:59;;;;;;;4.60;2.55;;;5.30;99.90;;;;;;5043825;28;20045;-77
2022/12/01 00:59:25;;;;;;;4.80;3.15;;;5.30;99.90;;;;;;5044120;28;20132;-76
2022/12/01 01:01:50;;;;;;;20.13;5.53;;;5.30;99.90;;;;;;5043760;28;20861;-76
2022/12/01 01:04:16;;;;;;;11.45;4.82;;;5.30;99.90;;;;;;5044281;28;20049;-76
2022/12/01 01:06:42;;;;;;;5.88;5.38;;;5.30;99.90;;;;;;5043384;28;20041;-76
2022/12/01 01:09:10;;;;;;;13.65;6.32;;;5.30;99.90;;;;;;5043649;28;20049;-76
2022/12/01 01:11:35;;;;;;;2.75;2.53;;;5.30;99.90;;;;;;5043552;28;20511;-76
2022/12/01 01:14:01;;;;;;;3.72;3.40;;;5.30;99.90;;;;;;5043612;28;20049;-76
2022/12/01 01:16:27;;;;;;;11.07;3.47;;;5.30;99.90;;;;;;5043698;28;20045;-76
2022/12/01 01:18:54;;;;;;;25.70;4.32;;;5.30;99.90;;;;;;5043604;28;20052;-76
2022/12/01 01:21:21;;;;;;;4.38;3.95;;;5.30;99.90;;;;;;5043319;28;20061;-76
2022/12/01 01:23:48;;;;;;;7.32;3.72;;;5.30;99.90;;;;;;5042893;28;20052;-76
2022/12/01 01:26:22;;;;;;;10.75;5.45;;;5.30;99.90;;;;;;5042984;28;20064;-76
2022/12/01 01:28:50;;;;;;;6.60;5.40;;;5.30;99.90;;;;;;5043114;28;20087;-75
2022/12/01 01:31:19;;;;;;;8.23;4.22;;;5.30;99.90;;;;;;5042333;28;20044;-76
2022/12/01 01:33:45;;;;;;;8.52;5.88;;;5.20;99.90;;;;;;5042757;28;20776;-76
2022/12/01 01:36:11;;;;;;;5.18;3.95;;;5.30;99.90;;;;;;5043142;28;20041;-76
2022/12/01 01:38:36;;;;;;;7.78;5.97;;;5.30;99.90;;;;;;5042972;28;20102;-76
2022/12/01 01:41:03;;;;;;;7.53;3.70;;;5.30;99.90;;;;;;5043286;28;20045;-76
2022/12/01 01:43:45;;;;;;;6.35;4.88;;;5.20;99.90;;;;;;5042886;28;20045;-76
2022/12/01 01:46:15;;;;;;;7.95;3.28;;;5.30;99.90;;;;;;5043156;28;20630;-76
2022/12/01 01:48:46;;;;;;;5.82;3.22;;;5.30;99.90;;;;;;5026454;28;20544;-76
2022/12/01 01:51:13;;;;;;;11.13;5.25;;;5.30;99.90;;;;;;5043261;28;20480;-76
2022/12/01 01:53:41;;;;;;;5.15;4.47;;;5.30;99.90;;;;;;5043097;28;20032;-76
2022/12/01 01:56:07;;;;;;;8.30;3.88;;;5.30;99.90;;;;;;5043041;28;20040;-76
2022/12/01 01:58:35;;;;;;;3.95;2.13;;;5.20;99.90;;;;;;5042670;28;20048;-76
2022/12/01 02:01:01;;;;;;;4.80;3.58;;;5.30;99.90;;;;;;5042441;28;20048;-76
2022/12/01 02:03:29;;;;;;;9.38;6.50;;;5.30;99.90;;;;;;5025129;28;20498;-76
2022/12/01 02:05:55;;;;;;;4.97;4.47;;;5.20;99.90;;;;;;5042234;28;20048;-76
2022/12/01 02:08:21;;;;;;;3.85;3.45;;;5.20;99.90;;;;;;5042355;28;20524;-76
2022/12/01 02:11:25;;;;;;;12.85;5.00;;;5.40;99.90;;;;;;5042881;28;20157;-74
2022/12/01 02:14:07;;;;;;;2.08;1.90;;;5.20;99.90;;;;;;5041584;28;20053;-74
2022/12/01 02:17:00;;;;;;;3.80;3.42;;;5.20;99.90;;;;;;5042759;28;20052;-75
2022/12/01 02:19:32;;;;;;;5.40;3.85;;;5.20;99.90;;;;;;5042400;28;20124;-75
2022/12/01 02:22:07;;;;;;;3.35;2.83;;;5.20;99.90;;;;;;5042271;28;20276;-77
2022/12/01 02:25:10;;;;;;;3.63;3.30;;;5.20;99.90;;;;;;5042489;28;20080;-76
2022/12/01 02:28:01;;;;;;;20.52;5.07;;;5.20;99.90;;;;;;5013687;28;20102;-76
2022/12/01 02:30:52;;;;;;;6.18;2.58;;;5.20;99.90;;;;;;5010725;28;20049;-77
2022/12/01 02:33:40;;;;;;;6.25;5.63;;;5.20;99.90;;;;;;5042549;28;20041;-76
2022/12/01 02:36:18;;;;;;;6.90;4.47;;;5.20;99.90;;;;;;5042320;28;20076;-76
2022/12/01 02:39:04;;;;;;;4.70;3.63;;;5.20;99.90;;;;;;5042598;28;20049;-77
2022/12/01 02:41:40;;;;;;;9.73;5.28;;;5.20;99.90;;;;;;5042364;28;20478;-76
2022/12/01 02:44:12;;;;;;;;;;;5.10;99.90;;;;;;5042647;28;20052;-76
2022/12/01 02:46:44;;;;;;;3.88;2.85;;;5.10;99.90;;;;;;5041932;28;20389;-76
2022/12/01 02:49:16;;;;;;;14.10;6.25;;;5.10;99.90;;;;;;5041637;28;20187;-76
2022/12/01 02:51:44;;;;;;;4.85;4.43;;;5.10;99.90;;;;;;5041527;28;20490;-77
2022/12/01 02:54:12;;;;;;;4.78;4.35;;;5.10;99.90;;;;;;5042075;28;20053;-75
2022/12/01 02:56:37;;;;;;;6.28;2.97;;;5.10;99.90;;;;;;5042058;28;20167;-76
2022/12/01 03:01:45;;;;;;;4.68;3.97;;;5.10;99.90;;;;;;5022166;26;20069;-84
2022/12/01 03:04:13;;;;;;;7.40;5.07;;;5.10;99.90;;;;;;5015151;28;20492;-84
2022/12/01 03:06:55;;;;;;;5.07;3.15;;;5.10;99.90;;;;;;5033143;28;20183;-85
2022/12/01 03:10:04;;;;;;;12.55;6.68;;;5.10;99.90;;;;;;5032484;28;20052;-84
2022/12/01 03:12:29;;;;;;;4.05;2.15;;;5.10;99.90;;;;;;5013227;28;20484;-84
2022/12/01 03:15:17;;;;;;;32.65;5.40;;;5.10;99.90;;;;;;5012996;28;20080;-84
2022/12/01 03:18:08;;;;;;;3.50;3.20;;;5.10;99.90;;;;;;5014122;28;20088;-84
2022/12/01 03:20:41;;;;;;;6.88;4.45;;;5.10;99.90;;;;;;5013964;28;20068;-84
2022/12/01 03:23:14;;;;;;;7.85;4.63;;;5.50;99.90;;;;;;5031795;28;20041;-84
2022/12/01 03:25:43;;;;;;;10.02;6.78;;;5.70;99.90;;;;;;5033631;28;20076;-84
2022/12/01 03:28:13;;;;;;;19.73;4.35;;;4.90;99.90;;;;;;5017950;28;20518;-85
2022/12/01 03:30:41;;;;;;;6.57;4.38;;;4.90;99.90;;;;;;5017732;28;20062;-85
2022/12/01 03:33:19;;;;;;;5.40;4.90;;;4.80;99.90;;;;;;5018388;28;20057;-84
2022/12/01 03:35:52;;;;;;;6.72;3.40;;;5.00;99.90;;;;;;5002650;28;20058;-83
2022/12/01 03:38:23;;;;;;;8.93;3.20;;;5.30;99.90;;;;;;4999070;28;20057;-84
2022/12/01 03:40:51;;;;;;;5.25;4.80;;;4.80;99.90;;;;;;5015755;28;20551;-84
2022/12/01 03:43:23;;;;;;;5.32;2.97;;;5.10;99.90;;;;;;5015713;28;20065;-84
2022/12/01 03:46:32;;;;;;;7.63;4.72;;;5.50;99.90;;;;;;4998242;28;20057;-83
2022/12/01 03:48:58;;;;;;;6.20;5.65;;;5.00;99.90;;;;;;4991029;28;20046;-84
2022/12/01 03:51:34;;;;;;;3.50;2.28;;;5.90;99.90;;;;;;5014988;28;20057;-84
2022/12/01 03:54:24;;;;;;;3.75;2.97;;;5.00;99.90;;;;;;4998943;28;20080;-84
2022/12/01 03:56:55;;;;;;;17.48;2.35;;;5.00;99.90;;;;;;4998975;28;20053;-83
2022/12/01 03:59:23;;;;;;;7.93;4.60;;;5.20;99.90;;;;;;5014457;28;20053;-84
2022/12/01 04:01:49;;;;;;;6.72;5.18;;;5.40;99.90;;;;;;5002277;28;20065;-85
2022/12/01 04:04:15;;;;;;;11.18;5.47;;;5.70;99.90;;;;;;5002112;28;20053;-83
2022/12/01 04:06:47;;;;;;;5.80;4.35;;;5.70;99.90;;;;;;5001521;28;20051;-83
2022/12/01 04:09:13;;;;;;;16.25;5.10;;;4.90;99.90;;;;;;5018325;28;20132;-84
2022/12/01 04:14:23;;;;;;;14.73;4.45;;;5.80;99.90;;;;;;5033010;28;20108;-84
2022/12/01 04:16:49;;;;;;;5.47;4.00;;;5.40;99.90;;;;;;5017422;28;20103;-84
2022/12/01 04:19:15;;;;;;;5.88;5.32;;;5.70;99.90;;;;;;5035080;28;20045;-84
2022/12/01 04:21:41;;;;;;;5.22;4.35;;;5.60;99.90;;;;;;5032753;28;20049;-85
2022/12/01 04:24:07;;;;;;;12.75;4.25;;;5.40;99.90;;;;;;5017118;28;20049;-85
2022/12/01 04:26:35;;;;;;;3.28;2.20;;;5.10;99.90;;;;;;5017458;28;20041;-85
2022/12/01 04:29:04;;;;;;;7.30;5.35;;;5.70;99.90;;;;;;5001037;28;20160;-85
2022/12/01 04:31:30;;;;;;;5.75;3.55;;;5.50;99.90;;;;;;5001444;28;20388;-84
2022/12/01 04:33:58;;;;;;;3.67;2.42;;;5.70;99.90;;;;;;5017048;28;20140;-83
2022/12/01 04:36:24;;;;;;;2.30;2.17;;;5.10;99.90;;;;;;5000070;28;20026;-85
2022/12/01 04:38:51;;;;;;;3.53;3.22;;;5.00;99.90;;;;;;5017073;28;20045;-85
2022/12/01 04:41:17;;;;;;;5.80;4.32;;;5.60;99.90;;;;;;5000721;28;20111;-85
2022/12/01 04:43:43;;;;;;;8.45;3.45;;;5.10;99.90;;;;;;4999484;28;20103;-84
2022/12/01 04:46:09;;;;;;;8.02;6.20;;;5.20;99.90;;;;;;5000476;28;20107;-85
2022/12/01 04:48:37;;;;;;;5.65;3.80;;;5.30;99.90;;;;;;5016576;28;20044;-83
2022/12/01 04:51:04;;;;;;;8.52;5.97;;;5.10;99.90;;;;;;5000121;28;20943;-83
2022/12/01 04:53:31;;;;;;;7.85;6.90;;;5.10;99.90;;;;;;5016561;28;20041;-84
2022/12/01 04:55:59;;;;;;;8.98;5.20;;;6.00;99.90;;;;;;5032668;28;20049;-84
2022/12/01 04:58:25;;;;;;;2.45;2.25;;;5.10;99.90;;;;;;5033008;28;20049;-84
2022/12/01 05:00:53;;;;;;;7.07;5.70;;;5.10;99.90;;;;;;5033636;28;20064;-85
2022/12/01 05:03:18;;;;;;;14.05;4.38;;;5.30;99.90;;;;;;5033377;28;20037;-84
2022/12/01 05:05:44;;;;;;;6.93;2.97;;;5.00;99.90;;;;;;5033321;28;20107;-84
2022/12/01 05:08:10;;;;;;;7.13;3.63;;;5.00;99.90;;;;;;4999226;28;21181;-85
2022/12/01 05:10:37;;;;;;;3.60;3.33;;;5.00;99.90;;;;;;5014775;28;20248;-84
2022/12/01 05:13:04;;;;;;;3.25;2.40;;;5.00;99.90;;;;;;5032389;28;20045;-85
2022/12/01 05:15:33;;;;;;;6.57;2.95;;;5.00;99.90;;;;;;4998212;28;20091;-84
2022/12/01 05:17:59;;;;;;;7.03;5.07;;;4.90;99.90;;;;;;5032366;28;20067;-84
2022/12/01 05:23:10;;;;;;;10.55;4.63;;;4.90;99.90;;;;;;5033528;28;20060;-84
2022/12/01 05:25:36;;;;;;;6.00;4.93;;;4.90;99.90;;;;;;5015079;28;20045;-85
2022/12/01 05:28:03;;;;;;;13.18;4.60;;;5.40;99.90;;;;;;5014787;28;20081;-85
2022/12/01 05:30:29;;;;;;;5.82;3.38;;;4.90;99.90;;;;;;5015351;28;20172;-85
2022/12/01 05:32:58;;;;;;;3.70;3.00;;;5.70;99.90;;;;;;5016795;28;20377;-84
2022/12/01 05:35:26;;;;;;;5.25;4.50;;;5.00;99.90;;;;;;5033932;28;20060;-85
2022/12/01 05:37:59;;;;;;;2.38;2.25;;;5.40;99.90;;;;;;4999780;28;20110;-85
2022/12/01 05:40:33;;;;;;;4.32;3.88;;;4.90;99.90;;;;;;5033991;28;20567;-85
2022/12/01 05:43:01;;;;;;;7.20;6.28;;;4.30;99.90;;;;;;5015461;28;20132;-85
2022/12/01 05:45:27;;;;;;;13.25;7.40;;;5.40;99.90;;;;;;5033022;28;20134;-84
2022/12/01 05:47:55;;;;;;;8.88;5.43;;;5.50;99.90;;;;;;5032813;28;20080;-83
2022/12/01 05:50:25;;;;;;;11.52;5.47;;;5.60;99.90;;;;;;5030848;28;20045;-83
2022/12/01 05:52:50;;;;;;;2.65;2.45;;;5.00;99.90;;;;;;5014180;28;20124;-84
2022/12/01 05:55:20;;;;;;;11.60;4.70;;;5.00;99.90;;;;;;5015454;28;20121;-83
2022/12/01 05:57:46;;;;;;;20.58;7.13;;;5.00;99.90;;;;;;4998046;28;20079;-84
2022/12/01 06:00:17;;;;;;;9.10;6.82;;;5.80;99.90;;;;;;5006837;28;20046;-85
2022/12/01 06:02:45;;;;;;;3.63;3.33;;;5.00;99.90;;;;;;4991618;28;20135;-84
2022/12/01 06:05:14;;;;;;;8.27;5.93;;;5.00;99.90;;;;;;4994361;28;20045;-85
2022/12/01 06:07:39;;;;;;;6.70;5.55;;;5.50;99.90;;;;;;4994582;28;20133;-84
2022/12/01 06:10:08;;;;;;;5.90;4.65;;;5.50;99.90;;;;;;4993798;28;20105;-85
2022/12/01 06:12:34;;;;;;;10.70;6.53;;;5.00;99.90;;;;;;4998018;28;20068;-84
2022/12/01 06:14:59;;;;;;;13.50;4.32;;;5.00;99.90;;;;;;5011334;28;20041;-84
2022/12/01 06:17:25;;;;;;;5.25;4.03;;;5.00;99.90;;;;;;5027563;28;20404;-84
2022/12/01 06:19:51;;;;;;;2.83;2.63;;;5.00;99.90;;;;;;5011180;28;20037;-85
2022/12/01 06:22:16;;;;;;;2.80;2.53;;;5.00;99.90;;;;;;5028136;28;20053;-84
2022/12/01 06:24:42;;;;;;;4.10;3.70;;;5.00;99.90;;;;;;5015709;28;20069;-85
2022/12/01 06:27:08;;;;;;;2.83;2.53;;;4.90;99.90;;;;;;5008994;28;20115;-84
2022/12/01 06:29:34;;;;;;;2.50;2.25;;;4.80;99.90;;;;;;4991871;28;20084;-84
2022/12/01 06:32:00;;;;;;;5.03;2.65;;;4.90;99.90;;;;;;4991824;28;20061;-84
2022/12/01 06:34:26;;;;;;;7.47;4.63;;;5.70;99.90;;;;;;5007764;28;20056;-85
2022/12/01 06:36:54;;;;;;;2.30;2.17;;;5.50;99.90;;;;;;5009677;28;20747;-84
2022/12/01 06:39:20;;;;;;;6.38;2.83;;;4.80;99.90;;;;;;4991117;28;20050;-84
2022/12/01 06:41:47;;;;;;;0.50;0.47;;;5.20;99.90;;;;;;5007243;28;20427;-86
2022/12/01 06:44:13;;;;;;;1.42;1.33;;;5.20;99.90;;;;;;4991118;28;20045;-84
2022/12/01 06:46:39;;;;;;;1.20;1.10;;;5.30;99.90;;;;;;4990557;28;20065;-85
2022/12/01 06:49:08;;;;;;;3.38;2.63;;;4.60;99.90;;;;;;5007803;28;20065;-84
2022/12/01 06:51:34;;;;;;;2.38;1.88;;;5.30;99.90;;;;;;4990385;28;20046;-85
2022/12/01 06:53:59;;;;;;;7.13;3.65;;;5.70;99.90;;;;;;5006765;28;20061;-84
2022/12/01 06:56:25;;;;;;;7.68;2.92;;;4.70;99.90;;;;;;5008436;28;20053;-84
2022/12/01 06:58:51;;;;;;;0.80;0.80;;;4.80;99.90;;;;;;4991577;28;20054;-83
2022/12/01 07:01:18;;;;;;;2.92;2.58;;;4.80;99.90;;;;;;5007692;28;20086;-83
2022/12/01 07:03:53;;;;;;;6.63;4.20;;;5.20;99.90;;;;;;5010192;28;20492;-85
2022/12/01 07:06:19;;;;;;;7.72;4.85;;;4.90;99.90;;;;;;5008592;28;20049;-84
2022/12/01 07:08:45;;;;;;;7.65;4.18;;;4.90;99.90;;;;;;5022221;28;20042;-84
2022/12/01 07:11:14;;;;;;;9.40;4.15;;;5.20;99.90;;;;;;4997813;28;20077;-83
2022/12/01 07:13:41;;;;;;;6.80;4.95;;;5.40;99.90;;;;;;5009897;28;20045;-84
2022/12/01 07:16:08;;;;;;;6.43;2.50;;;4.90;99.90;;;;;;4992376;28;20138;-84
2022/12/01 07:18:37;;;;;;;11.90;5.50;;;4.70;99.90;;;;;;5010335;28;20101;-84
2022/12/01 07:21:09;;;;;;;2.53;1.63;;;5.70;99.90;;;;;;5009599;28;20045;-84
2022/12/01 07:23:34;;;;;;;3.63;3.33;;;4.90;99.90;;;;;;4991491;28;20077;-84
2022/12/01 07:26:02;;;;;;;1.92;1.77;;;4.80;99.90;;;;;;4994629;28;20998;-84
2022/12/01 07:28:28;;;;;;;3.80;2.20;;;4.80;99.90;;;;;;5010646;28;20045;-84
2022/12/01 07:31:00;;;;;;;4.53;2.47;;;4.80;99.90;;;;;;5025668;28;20496;-85
2022/12/01 07:33:26;;;;;;;4.95;3.42;;;4.80;99.90;;;;;;5010765;28;20049;-84
2022/12/01 07:35:52;;;;;;;5.32;2.35;;;4.80;99.90;;;;;;5010756;28;20068;-84
2022/12/01 07:38:18;;;;;;;12.20;6.20;;;4.80;99.90;;;;;;4994408;28;20483;-84
2022/12/01 07:40:44;;;;;;;2.85;2.60;;;4.80;99.90;;;;;;4994967;28;20049;-84
2022/12/01 07:43:10;;;;;;;3.40;3.08;;;4.80;99.90;;;;;;5010335;28;20048;-83
2022/12/01 07:45:36;;;;;;;1.08;0.93;;;4.80;99.90;;;;;;5010259;28;20388;-84
2022/12/01 07:48:01;;;;;;;7.00;3.60;;;4.80;99.90;;;;;;5027427;28;20107;-84
2022/12/01 07:50:27;;;;;;;11.15;6.20;;;4.70;99.90;;;;;;5009594;28;20092;-85
2022/12/01 07:52:53;;;;;;;4.38;4.03;;;4.60;99.90;;;;;;5023615;28;20050;-85
2022/12/01 07:55:18;;;;;;;11.10;2.95;;;4.50;99.90;;;;;;4989984;28;20041;-83
2022/12/01 07:57:44;;;;;;;4.68;2.78;;;4.40;99.90;;;;;;4990454;28;20048;-84
2022/12/01 08:00:10;;;;;;;2.42;2.13;;;4.80;99.90;;;;;;5007655;28;20100;-83
2022/12/01 08:02:36;;;;;;;1.48;1.42;;;4.20;99.90;;;;;;5016218;28;20069;-84
2022/12/01 08:05:07;;;;;;;3.83;1.90;;;4.00;99.90;;;;;;5006489;28;20053;-85
2022/12/01 08:07:34;;;;;;;5.07;3.95;;;4.00;99.90;;;;;;5010762;28;20073;-85
2022/12/01 08:09:59;;;;;;;1.45;1.35;;;3.90;99.90;;;;;;5009743;28;20123;-83
2022/12/01 08:12:25;;;;;;;4.00;3.03;;;3.90;99.90;;;;;;5013050;28;20929;-84
2022/12/01 08:14:50;;;;;;;5.43;2.17;;;4.40;99.90;;;;;;5013774;28;20049;-83
2022/12/01 08:17:19;;;;;;;0.82;0.82;;;3.90;99.90;;;;;;4992259;28;20050;-83
2022/12/01 08:19:47;;;;;;;3.78;3.30;;;3.90;99.90;;;;;;5009822;28;20072;-83
2022/12/01 08:22:13;;;;;;;7.70;4.20;;;4.30;99.90;;;;;;5001023;28;20513;-84
2022/12/01 08:24:38;;;;;;;7.13;2.25;;;4.50;99.90;;;;;;5026004;28;20049;-85
2022/12/01 08:27:04;;;;;;;5.05;2.85;;;4.40;99.90;;;;;;5013063;28;20049;-83
2022/12/01 08:29:33;;;;;;;1.13;1.10;;;4.80;99.90;;;;;;5012711;28;20088;-84
2022/12/01 08:31:59;;;;;;;1.13;1.02;;;4.80;99.90;;;;;;5028020;28;20049;-83
2022/12/01 08:34:25;;;;;;;2.95;2.67;;;3.80;99.90;;;;;;5030225;28;20102;-84
2022/12/01 08:36:51;;;;;;;3.15;2.38;;;4.90;99.90;;;;;;5028962;28;20049;-85
2022/12/01 08:39:17;;;;;;;1.90;1.40;;;5.10;99.90;;;;;;4996905;28;20057;-83
2022/12/01 08:41:42;;;;;;;1.85;1.70;;;5.30;99.90;;;;;;5009134;28;20092;-84
2022/12/01 08:44:09;;;;;;;2.90;2.03;;;4.60;99.90;;;;;;4992984;28;20066;-85
2022/12/01 08:46:40;;;;;;;1.85;1.75;;;4.70;99.90;;;;;;4994259;28;20058;-84
2022/12/01 08:49:06;;;;;;;2.38;2.17;;;4.60;99.90;;;;;;5012175;28;20080;-85
2022/12/01 08:51:32;;;;;;;5.72;2.95;;;5.60;99.90;;;;;;5014462;28;20095;-86
2022/12/01 08:53:59;;;;;;;3.42;3.03;;;5.70;99.90;;;;;;5016145;28;20073;-84
2022/12/01 08:56:28;;;;;;;5.28;3.58;;;5.00;99.90;;;;;;4993607;28;20050;-83
2022/12/01 08:58:57;;;;;;;1.40;1.30;;;5.10;99.90;;;;;;4993147;28;20064;-85
2022/12/01 09:01:24;;;;;;;2.47;1.80;;;5.00;99.90;;;;;;4993738;28;20050;-85
2022/12/01 09:04:04;;;;;;;2.67;2.38;;;4.90;99.90;;;;;;5011980;28;20041;-84
2022/12/01 09:06:31;;;;;;;7.85;4.57;;;4.80;99.90;;;;;;4993428;28;20042;-84
2022/12/01 09:09:01;;;;;;;7.65;2.33;;;6.00;99.90;;;;;;5010564;28;20058;-83
2022/12/01 09:11:26;;;;;;;3.22;2.95;;;5.20;99.90;;;;;;5009302;28;20501;-85
2022/12/01 09:13:55;;;;;;;4.35;2.65;;;5.50;99.90;;;;;;5010464;28;20069;-84
2022/12/01 09:16:20;;;;;;;7.70;5.80;;;5.00;99.90;;;;;;5009626;28;20213;-84
2022/12/01 09:18:47;;;;;;;3.90;3.10;;;5.10;99.90;;;;;;4993304;28;20760;-86
2022/12/01 09:21:18;;;;;;;5.38;2.20;;;5.30;99.90;;;;;;5009918;28;20049;-84
2022/12/01 09:23:45;;;;;;;2.20;1.48;;;5.00;99.90;;;;;;4992582;28;20123;-85
2022/12/01 09:26:11;;;;;;;2.28;1.83;;;4.30;99.90;;;;;;4992899;28;20097;-84
2022/12/01 09:28:37;;;;;;;2.08;1.88;;;3.90;99.90;;;;;;5010477;28;20129;-84
2022/12/01 09:31:10;;;;;;;7.78;2.72;;;4.90;99.90;;;;;;4992207;28;20129;-85
2022/12/01 09:33:36;;;;;;;4.30;3.53;;;4.80;99.90;;;;;;4992209;28;20109;-84
2022/12/01 09:36:03;;;;;;;6.18;3.33;;;4.60;99.90;;;;;;5009964;28;20045;-84
2022/12/01 09:38:32;;;;;;;3.55;3.25;;;3.90;99.90;;;;;;4992386;28;20092;-85
2022/12/01 09:41:38;;;;;;;2.20;1.13;;;4.60;99.90;;;;;;5010459;28;20129;-85
2022/12/01 09:44:14;;;;;;;2.47;1.90;;;3.80;99.90;;;;;;4954057;28;20062;-84
2022/12/01 09:47:13;;;;;;;1.02;0.98;;;3.80;99.90;;;;;;5008515;28;20053;-85
2022/12/01 09:49:50;;;;;;;1.77;1.67;;;3.90;99.90;;;;;;4992719;28;20053;-84
2022/12/01 09:52:18;;;;;;;8.63;3.53;;;3.90;99.90;;;;;;4992393;28;20132;-84
2022/12/01 09:54:48;;;;;;;1.83;1.73;;;4.70;99.90;;;;;;5010072;28;20049;-84
2022/12/01 09:57:20;;;;;;;3.03;2.75;;;4.50;99.90;;;;;;4992640;28;20057;-85
2022/12/01 09:59:46;;;;;;;3.92;3.15;;;4.50;99.90;;;;;;5010351;28;20489;-84
2022/12/01 10:02:36;;;;;;;0.85;0.80;;;4.80;99.90;;;;;;4993039;28;20085;-86
2022/12/01 10:05:10;;;;;;;4.68;2.72;;;4.40;99.90;;;;;;5009284;28;20057;-85
2022/12/01 10:07:43;;;;;;;8.00;3.72;;;4.70;99.90;;;;;;5008986;28;20507;-85
2022/12/01 10:10:28;;;;;;;1.80;1.63;;;5.00;99.90;;;;;;5010511;28;20106;-85
2022/12/01 10:12:54;;;;;;;3.57;2.67;;;5.20;99.90;;;;;;4992766;28;20057;-84
2022/12/01 10:15:34;;;;;;;5.85;5.07;;;5.20;99.90;;;;;;4994203;28;20136;-86
2022/12/01 10:18:36;;;;;;;13.15;4.30;;;5.40;99.90;;;;;;4993510;28;20057;-86
2022/12/01 10:21:20;;;;;;;5.00;3.45;;;5.40;99.90;;;;;;4948599;29;20047;-85
2022/12/01 10:24:00;;;;;;;6.13;3.78;;;5.30;99.90;;;;;;4988473;28;20477;-85
2022/12/01 10:26:31;;;;;;;22.08;4.13;;;5.40;99.90;;;;;;4992385;28;20053;-85
2022/12/01 10:29:11;;;;;;;9.35;2.55;;;5.90;99.90;;;;;;5008966;28;20045;-85
2022/12/01 10:32:00;;;;;;;8.27;3.88;;;5.60;99.90;;;;;;5008123;28;20042;-85
2022/12/01 10:34:40;;;;;;;4.38;3.63;;;5.80;99.90;;;;;;4991668;28;20629;-85
2022/12/01 10:37:14;;;;;;;3.45;3.17;;;5.60;99.90;;;;;;5008869;28;20062;-85
2022/12/01 10:39:43;;;;;;;4.82;2.67;;;5.10;99.90;;;;;;5008990;28;20058;-86
2022/12/01 10:42:15;;;;;;;14.60;6.28;;;6.30;99.90;;;;;;4992873;28;20169;-85
2022/12/01 10:44:41;;;;;;;3.47;2.35;;;5.70;99.90;;;;;;5009810;28;20050;-86
2022/12/01 10:47:25;;;;;;;4.18;2.95;;;5.50;99.90;;;;;;4991806;28;20054;-84
2022/12/01 10:49:55;;;;;;;12.25;4.28;;;5.50;99.90;;;;;;5009766;28;20038;-86
2022/12/01 10:52:36;;;;;;;9.82;5.72;;;6.10;99.90;;;;;;4991918;28;20053;-84
2022/12/01 10:55:26;;;;;;;3.95;3.35;;;5.70;99.90;;;;;;4991865;28;20121;-84
2022/12/01 10:57:58;;;;;;;3.92;3.63;;;5.60;99.90;;;;;;5009135;28;20065;-85
2022/12/01 11:00:37;;;;;;;10.88;3.53;;;6.00;99.90;;;;;;4990380;28;20058;-85
2022/12/01 11:03:04;;;;;;;4.72;4.28;;;6.40;99.90;;;;;;5009045;28;20065;-85
2022/12/01 11:05:37;;;;;;;4.53;3.92;;;5.60;99.90;;;;;;5008479;28;20046;-84
2022/12/01 11:08:04;;;;;;;4.35;2.88;;;5.70;99.90;;;;;;4990682;28;20095;-84
2022/12/01 11:10:32;;;;;;;6.70;3.38;;;5.70;99.90;;;;;;4991544;28;20795;-84
2022/12/01 11:13:05;;;;;;;3.50;3.13;;;6.20;99.90;;;;;;5008008;28;20099;-86
2022/12/01 11:15:49;;;;;;;4.80;3.58;;;5.70;99.90;;;;;;4992651;28;20061;-84
2022/12/01 11:18:36;;;;;;;3.22;2.80;;;5.70;99.90;;;;;;5009024;28;20058;-85
2022/12/01 11:21:15;;;;;;;;;;;5.70;99.90;;;;;;4991121;28;20049;-84
2022/12/01 11:23:46;;;;;;;2.97;2.28;;;5.60;99.90;;;;;;5007143;28;19972;-84
2022/12/01 11:26:26;;;;;;;6.30;3.42;;;5.50;99.90;;;;;;4990753;28;20133;-84
2022/12/01 11:29:06;;;;;;;6.38;4.22;;;5.60;99.90;;;;;;4990858;28;20050;-85
2022/12/01 11:31:47;;;;;;;4.55;3.45;;;5.60;99.90;;;;;;4992253;28;20522;-84
2022/12/01 11:34:25;;;;;;;4.90;4.32;;;5.60;99.90;;;;;;4991687;28;20049;-84
2022/12/01 11:36:55;;;;;;;3.95;3.58;;;6.10;99.90;;;;;;5010561;28;20488;-84
2022/12/01 11:39:33;;;;;;;19.52;3.65;;;6.60;99.90;;;;;;4993893;28;20492;-86
2022/12/01 11:42:03;;;;;;;3.35;2.47;;;5.90;99.90;;;;;;5032092;28;20058;-87
2022/12/01 11:44:31;;;;;;;7.18;3.53;;;6.00;99.90;;;;;;5001405;28;20046;-84
2022/12/01 11:47:14;;;;;;;2.65;2.35;;;6.70;99.90;;;;;;5012472;28;20051;-86
2022/12/01 11:49:43;;;;;;;5.20;4.13;;;6.30;99.90;;;;;;5012934;28;20472;-85
2022/12/01 11:52:30;;;;;;;8.45;2.00;;;7.00;99.90;;;;;;4994931;28;20492;-86
2022/12/01 11:54:57;;;;;;;1.85;1.70;;;6.50;99.90;;;;;;5012514;28;20068;-85
2022/12/01 11:57:25;;;;;;;4.38;3.88;;;7.10;99.90;;;;;;4997915;28;20050;-85
2022/12/01 11:59:51;;;;;;;3.30;2.05;;;7.50;1.00;;;;;;4995896;28;20038;-85
2022/12/01 12:02:26;;;;;;;3.03;2.72;;;6.40;56.00;;;;;;4979688;28;20059;-85
2022/12/01 12:05:30;;;;;;;6.72;4.53;;;6.70;84.70;;;;;;4996146;28;20053;-86
2022/12/01 12:08:04;;;;;;;4.38;3.97;;;6.30;99.90;;;;;;4972938;28;20094;-85
2022/12/01 12:11:02;;;;;;;8.48;4.60;;;5.70;99.90;;;;;;4995757;28;20085;-85
2022/12/01 12:13:53;;;;;;;12.77;5.50;;;6.20;99.90;;;;;;5008881;28;20057;-84
2022/12/01 12:16:42;;;;;;;4.43;2.10;;;6.20;99.90;;;;;;4994170;28;20056;-85
2022/12/01 12:19:33;;;;;;;10.30;4.55;;;6.30;1.00;;;;;;4994284;28;20493;-84
2022/12/01 12:22:17;;;;;;;3.20;2.90;;;6.00;99.90;;;;;;4994446;28;20056;-85
2022/12/01 12:25:17;;;;;;;4.00;3.55;;;6.40;99.90;;;;;;5011866;28;20112;-84
2022/12/01 12:27:49;;;;;;;4.65;4.25;;;6.40;99.90;;;;;;4993488;28;20531;-85
2022/12/01 12:30:20;;;;;;;6.65;2.95;;;6.40;99.90;;;;;;4994526;28;20373;-85
2022/12/01 12:33:02;;;;;;;4.13;3.72;;;6.40;99.90;;;;;;4993720;28;20137;-85
2022/12/01 12:35:44;;;;;;;2.65;2.03;;;7.20;99.90;;;;;;4994539;28;20196;-84
2022/12/01 12:38:38;;;;;;;2.65;2.42;;;7.10;99.90;;;;;;5011726;28;20104;-85
2022/12/01 12:41:17;;;;;;;7.43;3.53;;;6.60;99.90;;;;;;5009920;28;20057;-84
2022/12/01 12:43:58;;;;;;;6.65;3.30;;;6.70;99.90;;;;;;5011244;28;20053;-84
2022/12/01 12:46:48;;;;;;;6.20;3.10;;;6.70;1.00;;;;;;4994439;28;20049;-85
2022/12/01 12:49:20;;;;;;;5.63;2.85;;;6.40;99.90;;;;;;5010284;28;20054;-85
2022/12/01 12:52:00;;;;;;;13.80;1.88;;;6.70;99.90;;;;;;5010862;28;20523;-85
2022/12/01 12:54:53;;;;;;;14.68;4.10;;;6.70;99.90;;;;;;5011112;28;20060;-85
2022/12/01 12:57:35;;;;;;;2.97;2.67;;;6.70;1.00;;;;;;5010492;28;20050;-85
2022/12/01 13:00:19;;;;;;;4.43;2.22;;;6.70;99.90;;;;;;5009414;28;20064;-86
2022/12/01 13:02:53;;;;;;;5.13;3.05;;;6.70;1.00;;;;;;4994187;28;20046;-84
2022/12/01 13:05:26;;;;;;;1.55;1.27;;;6.70;1.00;;;;;;4994126;28;20054;-84
2022/12/01 13:07:54;;;;;;;2.70;2.15;;;6.80;1.00;;;;;;4993890;28;20050;-85
2022/12/01 13:10:35;;;;;;;4.28;2.88;;;6.60;1.00;;;;;;5011206;28;20049;-85
2022/12/01 13:13:38;;;;;;;7.13;3.67;;;6.60;51.30;;;;;;4993681;28;20050;-85
2022/12/01 13:16:10;;;;;;;2.65;2.25;;;6.50;99.90;;;;;;4993874;28;20125;-85
2022/12/01 13:18:51;;;;;;;2.67;2.47;;;6.40;1.00;;;;;;4994211;28;20054;-85
2022/12/01 13:21:20;;;;;;;4.05;3.42;;;6.30;1.00;;;;;;5009698;28;20050;-85
2022/12/01 13:23:47;;;;;;;11.20;6.30;;;6.30;65.30;;;;;;5009871;28;20128;-85
2022/12/01 13:26:16;;;;;;;1.83;1.67;;;6.50;1.00;;;;;;4993312;28;20085;-86